Terminal Aerodrome Forecast
Issued by NWS

Home | Current Version | Previous Version | Text Only | Print | Product List | Glossary On
Versions: 1 2 3 4 5 6 7 8 9 10 11 12 13 14 15 16 17 18 19 20 21 22 23
412
FTUS45 KSLC 221733
TAFEVW
TAF
KEVW 221733Z 2218/2318 23011KT P6SM VCSH SCT040 BKN070
      TEMPO 2218/2219 -SHRA BKN015
     FM230300 VRB04KT P6SM VCSH SCT040 BKN070
     FM230900 11008KT P6SM VCSH SCT030 BKN060=

USA.gov is the U.S. government's official web portal to all federal, state and local government web resources and services.